Marystown, Canada
Current Conditions -  °F | °C
As of 6:00 AM on Sunday 26 Oct 2014 (Local Time) from LFVP Reporting Station
Overcast Overcast  
Wind Chill: 40°   Ceiling: 1200
Heat Index: 46°   Visibility: 6mi
Dew Point: 45°   Wind: 14mph
Humidity: 93%   Direction: 60°ENE
Pressure: 29.47"   Gusts: NA
Location:  47.17°N, 55.17°W
Report Text: LFVP 260800Z 06012KT 9999 OVC012 08/07 Q0998 NOSIG
Loading
Personal Weather Stations






























Interactive Weather Map
Tropical Storm Tracking
New forecast layout! Learn more

10-Day Weather Forecast

Advertisements
Track Severe Weather on mobile